createdAt,value
2023-02-17T00:01:41.797Z,66.80
2023-02-17T00:04:12.185Z,66.90
2023-02-17T00:06:40.997Z,67.00
2023-02-17T00:09:09.783Z,67.00
2023-02-17T00:11:38.682Z,67.10
2023-02-17T00:14:08.075Z,67.10
2023-02-17T00:16:37.004Z,67.10
2023-02-17T00:19:24.886Z,67.20
2023-02-17T00:21:57.341Z,67.20
2023-02-17T00:24:28.217Z,67.30
2023-02-17T00:26:57.302Z,67.30
2023-02-17T00:29:26.891Z,67.30
2023-02-17T00:31:56.483Z,67.30
2023-02-17T00:34:27.853Z,67.30
2023-02-17T00:36:58.123Z,67.30
2023-02-17T00:39:28.189Z,67.30
2023-02-17T00:41:57.091Z,67.20
2023-02-17T00:44:26.474Z,67.30
2023-02-17T00:46:55.346Z,67.40
2023-02-17T00:49:26.142Z,67.40
2023-02-17T00:51:55.596Z,67.50
2023-02-17T00:54:25.922Z,67.40
2023-02-17T00:56:54.942Z,67.50
2023-02-17T00:59:25.539Z,67.50
2023-02-17T01:01:54.639Z,67.60
2023-02-17T01:04:23.517Z,67.50
2023-02-17T01:06:52.428Z,67.50
2023-02-17T01:09:21.684Z,67.40
2023-02-17T01:11:52.472Z,67.40
2023-02-17T01:14:21.531Z,67.40
2023-02-17T01:16:50.776Z,67.40
2023-02-17T01:19:20.545Z,67.30
2023-02-17T01:21:50.413Z,67.40
2023-02-17T01:24:19.363Z,67.30
2023-02-17T01:26:48.311Z,67.40
2023-02-17T01:29:18.491Z,67.40
2023-02-17T01:31:47.496Z,67.50
2023-02-17T01:34:16.632Z,67.50
2023-02-17T01:36:45.651Z,67.60
2023-02-17T01:39:15.410Z,67.40
2023-02-17T01:41:45.061Z,67.50
2023-02-17T01:44:19.448Z,67.40
2023-02-17T01:46:49.905Z,67.40
2023-02-17T01:49:25.121Z,67.40
2023-02-17T01:51:57.938Z,67.40
2023-02-17T01:54:31.461Z,67.50
2023-02-17T01:57:02.707Z,67.50
2023-02-17T01:59:33.976Z,67.50
2023-02-17T02:02:06.452Z,67.60
2023-02-17T02:04:38.842Z,67.70
2023-02-17T02:07:15.214Z,67.60
2023-02-17T02:09:50.054Z,67.70
2023-02-17T02:12:22.154Z,67.80
2023-02-17T02:14:54.136Z,67.80
2023-02-17T02:17:30.688Z,68.00
2023-02-17T02:20:58.125Z,68.00
2023-02-17T02:23:46.015Z,68.10
2023-02-17T02:26:46.630Z,68.10
2023-02-17T02:29:39.334Z,68.10
2023-02-17T02:32:29.267Z,68.20
2023-02-17T02:35:06.991Z,68.30
2023-02-17T02:37:40.722Z,68.30
2023-02-17T02:40:12.126Z,68.30
2023-02-17T02:42:42.635Z,68.40
2023-02-17T02:45:13.249Z,68.50
2023-02-17T02:47:49.152Z,68.40
2023-02-17T02:50:25.666Z,68.60
2023-02-17T02:53:09.977Z,68.60
2023-02-17T02:55:52.202Z,68.70
2023-02-17T02:58:25.335Z,68.70
2023-02-17T03:01:01.716Z,68.70
2023-02-17T03:03:42.696Z,68.70
2023-02-17T03:06:19.934Z,68.80
2023-02-17T03:08:52.386Z,68.90
2023-02-17T03:11:32.310Z,69.10
2023-02-17T03:14:04.092Z,69.20
2023-02-17T03:16:34.478Z,69.30
2023-02-17T03:19:04.864Z,69.40
2023-02-17T03:21:37.458Z,69.40
2023-02-17T03:24:07.280Z,69.70
2023-02-17T03:26:36.441Z,69.80
2023-02-17T03:29:05.542Z,69.80
2023-02-17T03:31:34.984Z,70.00
2023-02-17T03:34:05.306Z,70.40
2023-02-17T03:36:34.300Z,70.80
2023-02-17T03:39:03.285Z,71.20
2023-02-17T03:41:32.140Z,71.40
2023-02-17T03:44:01.742Z,71.60
2023-02-17T03:46:30.659Z,72.00
2023-02-17T03:48:59.650Z,72.30
2023-02-17T03:51:30.148Z,72.40
2023-02-17T03:53:59.029Z,72.80
2023-02-17T03:56:28.584Z,72.80
2023-02-17T03:58:58.038Z,72.80
2023-02-17T04:01:27.046Z,72.90
2023-02-17T04:03:56.135Z,72.90
2023-02-17T04:06:25.150Z,72.90
2023-02-17T04:08:55.831Z,72.80
2023-02-17T04:11:25.713Z,73.10
2023-02-17T04:13:54.686Z,73.10
2023-02-17T04:16:23.845Z,73.10
2023-02-17T04:18:52.792Z,73.10
2023-02-17T04:21:21.841Z,73.10
2023-02-17T04:23:50.929Z,73.00
2023-02-17T04:26:21.416Z,73.10
2023-02-17T04:28:50.426Z,73.10
2023-02-17T04:31:19.494Z,73.00
2023-02-17T04:33:48.558Z,72.90
2023-02-17T04:36:17.779Z,73.00
2023-02-17T04:38:46.889Z,73.00
2023-02-17T04:41:16.298Z,73.30
2023-02-17T04:43:47.775Z,73.70
2023-02-17T04:46:17.209Z,73.90
2023-02-17T04:48:46.306Z,74.20
2023-02-17T04:51:15.300Z,74.10
2023-02-17T04:53:44.362Z,74.60
2023-02-17T04:56:13.718Z,74.50
2023-02-17T04:58:42.834Z,74.50
2023-02-17T05:01:13.392Z,74.60
2023-02-17T05:03:42.878Z,74.70
2023-02-17T05:06:11.945Z,74.50
2023-02-17T05:08:41.037Z,74.50
2023-02-17T05:11:09.988Z,75.40
2023-02-17T05:13:39.056Z,74.70
2023-02-17T05:16:08.656Z,74.60
2023-02-17T05:18:39.477Z,74.70
2023-02-17T05:21:08.857Z,74.90
2023-02-17T05:23:41.188Z,74.80
2023-02-17T05:26:10.660Z,75.00
2023-02-17T05:28:39.433Z,75.00
2023-02-17T05:31:08.372Z,74.90
2023-02-17T05:33:37.460Z,75.10
2023-02-17T05:36:10.461Z,75.10
2023-02-17T05:38:40.730Z,75.20
2023-02-17T05:41:09.567Z,75.20
2023-02-17T05:43:38.350Z,75.10
2023-02-17T05:46:07.936Z,75.10
2023-02-17T05:48:37.049Z,75.10
2023-02-17T05:51:07.693Z,75.10
2023-02-17T05:53:36.701Z,75.20
2023-02-17T05:56:06.681Z,75.10
2023-02-17T05:58:36.074Z,75.30
2023-02-17T06:01:09.414Z,75.20
2023-02-17T06:03:38.305Z,75.50
2023-02-17T06:06:09.253Z,75.20
2023-02-17T06:08:39.396Z,75.30
2023-02-17T06:11:08.450Z,75.30
2023-02-17T06:13:37.648Z,75.20
2023-02-17T06:16:07.866Z,75.30
2023-02-17T06:18:37.489Z,75.60
2023-02-17T06:21:08.282Z,75.60
2023-02-17T06:23:37.492Z,75.60
2023-02-17T06:26:06.813Z,75.70
2023-02-17T06:28:35.849Z,75.60
2023-02-17T06:31:05.165Z,75.70
2023-02-17T06:33:34.260Z,75.80
2023-02-17T06:36:03.748Z,76.60
2023-02-17T06:38:34.717Z,75.70
2023-02-17T06:41:03.738Z,75.90
2023-02-17T06:43:32.685Z,76.50
2023-02-17T06:46:02.040Z,75.70
2023-02-17T06:48:33.135Z,76.00
2023-02-17T06:51:02.680Z,75.80
2023-02-17T06:53:31.642Z,75.80
2023-02-17T06:56:01.994Z,75.70
2023-02-17T06:58:32.734Z,76.00
2023-02-17T07:01:01.793Z,75.70
2023-02-17T07:03:32.252Z,75.90
2023-02-17T07:06:01.561Z,76.00
2023-02-17T07:08:31.383Z,75.90
2023-02-17T07:11:06.339Z,75.90
2023-02-17T07:13:35.989Z,76.20
2023-02-17T07:16:06.209Z,76.00
2023-02-17T07:18:36.933Z,76.00
2023-02-17T07:21:07.081Z,76.00
2023-02-17T07:23:36.780Z,76.00
2023-02-17T07:26:09.569Z,76.00
2023-02-17T07:28:39.840Z,76.20
2023-02-17T07:31:11.249Z,76.30
2023-02-17T07:33:41.720Z,76.50
2023-02-17T07:36:13.350Z,76.50
2023-02-17T07:38:44.302Z,76.60
2023-02-17T07:41:18.759Z,76.50
2023-02-17T07:43:50.889Z,76.60
2023-02-17T07:46:20.272Z,76.50
2023-02-17T07:48:49.456Z,76.50
2023-02-17T07:51:21.404Z,76.40
2023-02-17T07:53:52.333Z,76.40
2023-02-17T07:56:24.138Z,76.30
2023-02-17T07:58:53.150Z,76.40
2023-02-17T08:01:25.108Z,76.30
2023-02-17T08:03:54.518Z,76.40
2023-02-17T08:06:25.280Z,76.40
2023-02-17T08:09:12.641Z,76.40
2023-02-17T08:12:00.580Z,76.50
2023-02-17T08:14:32.096Z,76.60
2023-02-17T08:17:01.462Z,76.50
2023-02-17T08:19:46.516Z,76.70
2023-02-17T08:22:17.296Z,76.70
2023-02-17T08:24:46.409Z,76.80
2023-02-17T08:27:17.411Z,76.80
2023-02-17T08:29:47.296Z,77.10
2023-02-17T08:32:17.193Z,77.10
2023-02-17T08:34:46.873Z,77.10
2023-02-17T08:37:15.921Z,77.10
2023-02-17T08:39:45.026Z,77.10
2023-02-17T08:42:14.238Z,77.10
2023-02-17T08:44:44.974Z,77.20
2023-02-17T08:47:14.251Z,77.20
2023-02-17T08:49:43.412Z,77.20
2023-02-17T08:52:12.620Z,77.20
2023-02-17T08:54:41.635Z,77.20
2023-02-17T08:57:10.716Z,77.10
2023-02-17T08:59:39.828Z,77.20
2023-02-17T09:02:11.694Z,77.20
2023-02-17T09:04:40.852Z,77.30
2023-02-17T09:07:11.954Z,77.30
2023-02-17T09:09:42.293Z,77.20
2023-02-17T09:12:11.337Z,78.10
2023-02-17T09:14:40.617Z,77.30
2023-02-17T09:17:11.727Z,77.30
2023-02-17T09:19:41.077Z,77.40
2023-02-17T09:22:15.484Z,77.30
2023-02-17T09:24:49.207Z,77.30
2023-02-17T09:27:18.253Z,77.30
2023-02-17T09:29:47.236Z,77.50
2023-02-17T09:32:17.706Z,77.40
2023-02-17T09:34:51.088Z,77.50
2023-02-17T09:37:20.828Z,77.50
2023-02-17T09:39:50.500Z,77.50
2023-02-17T09:42:22.393Z,77.50
2023-02-17T09:44:56.767Z,77.50
2023-02-17T09:47:33.631Z,77.40
2023-02-17T09:50:05.402Z,77.50
2023-02-17T09:52:42.263Z,77.50
2023-02-17T09:55:16.802Z,77.50
2023-02-17T09:57:54.356Z,77.40
2023-02-17T10:00:25.996Z,77.50
2023-02-17T10:03:00.873Z,77.40
2023-02-17T10:05:37.162Z,77.40
2023-02-17T10:08:12.280Z,77.40
2023-02-17T10:10:45.810Z,77.40
2023-02-17T10:13:19.974Z,77.30
2023-02-17T10:15:52.870Z,77.30
2023-02-17T10:18:31.663Z,77.30
2023-02-17T10:21:07.369Z,77.30
2023-02-17T10:23:36.648Z,77.30
2023-02-17T10:26:17.224Z,77.20
2023-02-17T10:28:52.637Z,77.30
2023-02-17T10:31:36.144Z,77.30
2023-02-17T10:34:14.781Z,77.40
2023-02-17T10:36:52.208Z,77.30
2023-02-17T10:39:35.721Z,77.30
2023-02-17T10:42:06.946Z,77.40
2023-02-17T10:44:39.172Z,77.20
2023-02-17T10:47:08.699Z,77.20
2023-02-17T10:49:43.380Z,77.10
2023-02-17T10:52:16.629Z,77.30
2023-02-17T10:54:49.729Z,77.20
2023-02-17T10:57:21.510Z,77.20
2023-02-17T10:59:51.219Z,77.30
2023-02-17T11:02:22.933Z,77.20
2023-02-17T11:04:55.441Z,77.30
2023-02-17T11:07:33.394Z,77.20
2023-02-17T11:10:04.931Z,77.30
2023-02-17T11:12:39.521Z,77.20
2023-02-17T11:15:18.223Z,77.70
2023-02-17T11:17:48.283Z,77.40
2023-02-17T11:20:35.174Z,77.30
2023-02-17T11:23:24.827Z,77.50
2023-02-17T11:26:01.213Z,77.60
2023-02-17T11:28:30.598Z,77.40
2023-02-17T11:31:03.062Z,77.30
2023-02-17T11:33:35.895Z,77.30
2023-02-17T11:36:13.689Z,77.40
2023-02-17T11:38:47.909Z,77.50
2023-02-17T11:41:17.808Z,77.50
2023-02-17T11:43:55.053Z,77.50
2023-02-17T11:46:30.579Z,77.60
2023-02-17T11:49:19.045Z,77.50
2023-02-17T11:52:00.944Z,77.50
2023-02-17T11:54:36.572Z,77.50
2023-02-17T11:57:25.458Z,77.50
2023-02-17T12:00:11.939Z,77.60
2023-02-17T12:03:04.121Z,77.50
2023-02-17T12:05:45.596Z,77.50
2023-02-17T12:08:24.755Z,77.50
2023-02-17T12:11:05.969Z,77.50
2023-02-17T12:13:44.770Z,77.60
2023-02-17T12:16:28.705Z,77.60
2023-02-17T12:19:05.156Z,77.60
2023-02-17T12:21:51.002Z,77.60
2023-02-17T12:24:34.273Z,77.70
2023-02-17T12:27:12.004Z,77.70
2023-02-17T12:30:07.562Z,77.50
2023-02-17T12:32:59.396Z,77.60
2023-02-17T12:35:41.898Z,77.50
2023-02-17T12:38:16.383Z,77.50
2023-02-17T12:40:52.596Z,77.50
2023-02-17T12:43:26.934Z,77.60
2023-02-17T12:46:01.330Z,77.70
2023-02-17T12:48:36.337Z,77.60
2023-02-17T12:51:10.416Z,77.50
2023-02-17T12:53:45.023Z,77.50
2023-02-17T12:56:50.905Z,77.60
2023-02-17T12:59:23.084Z,77.90
2023-02-17T13:01:57.343Z,77.70
2023-02-17T13:04:27.647Z,77.70
2023-02-17T13:07:05.230Z,77.80
2023-02-17T13:09:36.875Z,77.90
2023-02-17T13:12:18.256Z,77.80
2023-02-17T13:14:49.515Z,78.00
2023-02-17T13:17:27.505Z,77.90
2023-02-17T13:20:29.999Z,78.00
2023-02-17T13:23:14.621Z,78.10
2023-02-17T13:25:43.776Z,78.00
2023-02-17T13:28:35.485Z,77.90
2023-02-17T13:31:15.426Z,78.20
2023-02-17T13:33:48.639Z,78.10
2023-02-17T13:36:22.453Z,78.00
2023-02-17T13:39:01.487Z,78.00
2023-02-17T13:41:35.005Z,78.00
2023-02-17T13:44:40.080Z,78.00
2023-02-17T13:47:16.845Z,78.10
2023-02-17T13:49:53.493Z,77.90
2023-02-17T13:52:25.182Z,78.00
2023-02-17T13:54:55.169Z,77.90
2023-02-17T13:57:25.993Z,77.80
2023-02-17T14:00:07.375Z,77.80
2023-02-17T14:02:48.164Z,77.90
2023-02-17T14:05:20.597Z,77.80
2023-02-17T14:07:50.869Z,77.80
2023-02-17T14:10:23.431Z,77.80
2023-02-17T14:12:53.176Z,77.80
2023-02-17T14:15:27.137Z,77.80
2023-02-17T14:17:56.517Z,77.90
2023-02-17T14:20:31.941Z,77.80
2023-02-17T14:23:04.553Z,78.40
2023-02-17T14:25:36.916Z,77.90
2023-02-17T14:28:18.168Z,77.90
2023-02-17T14:30:48.949Z,77.80
2023-02-17T14:33:25.297Z,77.90
2023-02-17T14:35:56.855Z,78.10
2023-02-17T14:38:27.955Z,77.90
2023-02-17T14:40:56.880Z,78.00
2023-02-17T14:43:26.206Z,77.90
2023-02-17T14:45:56.596Z,78.10
2023-02-17T14:48:27.928Z,78.10
2023-02-17T14:50:57.876Z,78.40
2023-02-17T14:53:28.903Z,78.40
2023-02-17T14:56:03.073Z,78.40
2023-02-17T14:58:32.558Z,78.50
2023-02-17T15:01:03.125Z,78.40
2023-02-17T15:03:32.592Z,78.30
2023-02-17T15:06:01.848Z,78.30
2023-02-17T15:08:33.529Z,78.20
2023-02-17T15:11:03.543Z,78.30
2023-02-17T15:13:32.668Z,78.20
2023-02-17T15:16:03.021Z,78.20
2023-02-17T15:18:32.095Z,78.10
2023-02-17T15:21:01.235Z,78.10
2023-02-17T15:23:32.858Z,78.00
2023-02-17T15:26:02.029Z,78.10
2023-02-17T15:28:31.129Z,78.00
2023-02-17T15:31:00.159Z,78.10
2023-02-17T15:33:30.878Z,78.10
2023-02-17T15:36:00.037Z,78.10
2023-02-17T15:38:29.153Z,78.00
2023-02-17T15:40:58.695Z,77.90
2023-02-17T15:46:11.996Z,77.80
2023-02-17T15:48:43.443Z,77.80
2023-02-17T15:51:15.062Z,77.70
2023-02-17T15:53:43.926Z,78.50
2023-02-17T15:56:15.229Z,77.70
2023-02-17T15:58:44.930Z,77.80
2023-02-17T16:01:19.740Z,77.70
2023-02-17T16:03:50.146Z,77.60
2023-02-17T16:06:19.051Z,78.40
2023-02-17T16:08:48.020Z,77.60
2023-02-17T16:11:18.263Z,77.60
2023-02-17T16:13:48.485Z,77.60
2023-02-17T16:16:20.847Z,77.60
2023-02-17T16:18:52.440Z,77.60
2023-02-17T16:21:21.520Z,77.60
2023-02-17T16:23:52.509Z,77.50
2023-02-17T16:26:26.616Z,77.40
2023-02-17T16:28:55.945Z,77.60
2023-02-17T16:31:25.279Z,77.50
2023-02-17T16:34:00.430Z,77.60
2023-02-17T16:36:33.249Z,77.40
2023-02-17T16:39:11.304Z,77.50
2023-02-17T16:41:40.499Z,77.60
2023-02-17T16:44:13.805Z,77.50
2023-02-17T16:46:48.458Z,77.50
2023-02-17T16:49:24.170Z,77.50
2023-02-17T16:51:54.899Z,77.60
2023-02-17T16:54:23.826Z,77.60
2023-02-17T16:56:53.537Z,77.60
2023-02-17T16:59:24.078Z,77.60
2023-02-17T17:01:54.163Z,77.60
2023-02-17T17:04:24.643Z,77.60
2023-02-17T17:06:54.138Z,77.60
2023-02-17T17:09:25.596Z,77.60
2023-02-17T17:11:54.605Z,77.60
2023-02-17T17:14:23.728Z,78.40
2023-02-17T17:16:55.908Z,77.60
2023-02-17T17:19:26.547Z,77.50
2023-02-17T17:21:55.468Z,77.60
2023-02-17T17:24:24.414Z,77.50
2023-02-17T17:26:53.272Z,77.50
2023-02-17T17:29:22.202Z,77.60
2023-02-17T17:31:51.179Z,77.60
2023-02-17T17:34:20.018Z,77.60
2023-02-17T17:36:50.257Z,77.60
2023-02-17T17:39:21.507Z,77.70
2023-02-17T17:41:51.030Z,77.70
2023-02-17T17:44:20.484Z,77.60
2023-02-17T17:46:49.400Z,77.60
2023-02-17T17:49:18.580Z,77.60
2023-02-17T17:51:47.659Z,77.60
2023-02-17T17:54:17.781Z,77.50
2023-02-17T17:56:46.624Z,77.50
2023-02-17T17:59:16.103Z,77.60
2023-02-17T18:01:45.923Z,77.60
2023-02-17T18:04:15.157Z,77.50
2023-02-17T18:06:47.146Z,77.60
2023-02-17T18:09:31.142Z,77.60
2023-02-17T18:12:03.891Z,77.70
2023-02-17T18:14:33.402Z,77.70
2023-02-17T18:17:02.309Z,77.70
2023-02-17T18:19:32.651Z,77.70
2023-02-17T18:22:01.889Z,77.80
2023-02-17T18:24:32.340Z,77.80
2023-02-17T18:27:01.456Z,77.90
2023-02-17T18:29:30.502Z,77.90
2023-02-17T18:32:00.050Z,78.10
2023-02-17T18:34:29.458Z,78.10
2023-02-17T18:36:59.580Z,78.20
2023-02-17T18:39:28.501Z,78.30
2023-02-17T18:41:58.771Z,78.30
2023-02-17T18:44:27.802Z,78.30
2023-02-17T18:46:56.890Z,78.30
2023-02-17T18:49:25.654Z,78.30
2023-02-17T18:51:54.613Z,78.30
2023-02-17T18:54:23.933Z,78.30
2023-02-17T18:56:53.036Z,78.30
2023-02-17T18:59:23.380Z,78.30
2023-02-17T19:01:52.479Z,78.10
2023-02-17T19:04:21.235Z,78.10
2023-02-17T19:06:50.050Z,78.00
2023-02-17T19:09:19.058Z,78.00
2023-02-17T19:11:48.024Z,78.10
2023-02-17T19:14:16.994Z,78.00
2023-02-17T19:16:47.328Z,78.00
2023-02-17T19:19:16.243Z,77.90
2023-02-17T19:21:45.183Z,77.90
2023-02-17T19:24:16.302Z,77.80
2023-02-17T19:26:45.372Z,77.80
2023-02-17T19:29:14.395Z,77.80
2023-02-17T19:31:43.671Z,77.70
2023-02-17T19:34:15.617Z,77.60
2023-02-17T19:36:44.561Z,77.50
2023-02-17T19:39:13.659Z,77.40
2023-02-17T19:41:42.468Z,77.30
2023-02-17T19:44:11.753Z,77.30
2023-02-17T19:46:41.128Z,77.20
2023-02-17T19:49:10.054Z,77.20
2023-02-17T19:51:40.341Z,77.10
2023-02-17T19:54:09.578Z,77.10
2023-02-17T19:56:38.968Z,77.10
2023-02-17T19:59:07.953Z,77.00
2023-02-17T20:01:37.091Z,77.00
2023-02-17T20:04:08.253Z,76.90
2023-02-17T20:06:42.661Z,76.90
2023-02-17T20:09:15.005Z,76.80
2023-02-17T20:11:44.532Z,76.70
2023-02-17T20:14:13.764Z,76.70
2023-02-17T20:16:43.004Z,76.70
2023-02-17T20:19:12.054Z,76.50
2023-02-17T20:21:44.769Z,76.60
2023-02-17T20:24:14.538Z,76.60
2023-02-17T20:26:46.538Z,76.70
2023-02-17T20:29:15.692Z,76.50
2023-02-17T20:31:44.777Z,77.40
2023-02-17T20:34:27.064Z,76.60
2023-02-17T20:36:57.938Z,76.70
2023-02-17T20:39:27.089Z,76.70
2023-02-17T20:41:57.128Z,76.80
2023-02-17T20:44:27.954Z,76.70
2023-02-17T20:46:57.702Z,76.70
2023-02-17T20:49:27.979Z,76.70
2023-02-17T20:51:58.471Z,76.80
2023-02-17T20:54:27.459Z,76.70
2023-02-17T20:56:59.275Z,76.70
2023-02-17T20:59:28.526Z,76.60
2023-02-17T21:01:57.479Z,76.50
2023-02-17T21:04:26.561Z,76.50
2023-02-17T21:06:55.522Z,76.60
2023-02-17T21:09:25.941Z,76.70
2023-02-17T21:11:55.012Z,76.70
2023-02-17T21:14:24.315Z,76.70
2023-02-17T21:16:53.394Z,76.70
2023-02-17T21:19:22.372Z,76.60
2023-02-17T21:21:51.321Z,76.60
2023-02-17T21:24:20.302Z,76.50
2023-02-17T21:26:50.601Z,76.50
2023-02-17T21:29:19.734Z,76.50
2023-02-17T21:31:48.832Z,76.70
2023-02-17T21:34:17.829Z,76.70
2023-02-17T21:36:46.858Z,76.70
2023-02-17T21:39:16.177Z,76.80
2023-02-17T21:41:45.160Z,76.70
2023-02-17T21:44:32.978Z,76.90
2023-02-17T21:47:01.988Z,76.90
2023-02-17T21:49:30.933Z,77.00
2023-02-17T21:51:59.770Z,77.10
2023-02-17T21:54:28.901Z,77.30
2023-02-17T21:56:57.981Z,77.60
2023-02-17T21:59:28.335Z,77.70
2023-02-17T22:01:57.438Z,77.80
2023-02-17T22:04:28.092Z,78.00
2023-02-17T22:06:57.025Z,78.10
2023-02-17T22:09:25.941Z,79.00
2023-02-17T22:11:55.596Z,78.40
2023-02-17T22:14:24.510Z,78.40
2023-02-17T22:16:55.156Z,78.60
2023-02-17T22:19:25.659Z,78.70
2023-02-17T22:21:54.573Z,78.80
2023-02-17T22:24:26.982Z,79.00
2023-02-17T22:26:56.223Z,79.00
2023-02-17T22:29:25.358Z,79.20
2023-02-17T22:31:56.203Z,79.20
2023-02-17T22:34:27.633Z,79.30
2023-02-17T22:36:56.545Z,79.40
2023-02-17T22:39:25.587Z,79.30
2023-02-17T22:41:54.830Z,79.40
2023-02-17T22:44:23.761Z,79.60
2023-02-17T22:46:52.848Z,79.60
2023-02-17T22:49:23.201Z,79.60
2023-02-17T22:51:52.198Z,79.90
2023-02-17T22:54:21.243Z,79.70
2023-02-17T22:56:50.292Z,79.80
2023-02-17T22:59:19.246Z,79.90
2023-02-17T23:01:48.236Z,79.90
2023-02-17T23:04:17.930Z,80.90
2023-02-17T23:06:48.236Z,80.10
2023-02-17T23:09:19.678Z,80.20
2023-02-17T23:11:53.722Z,80.20
2023-02-17T23:14:25.597Z,80.20
2023-02-17T23:16:56.937Z,80.30
2023-02-17T23:19:26.700Z,80.20
2023-02-17T23:21:59.804Z,80.20
2023-02-17T23:24:29.596Z,80.40
2023-02-17T23:27:00.314Z,80.20
2023-02-17T23:29:30.659Z,80.40
2023-02-17T23:32:00.408Z,80.40
2023-02-17T23:34:29.690Z,80.40
2023-02-17T23:37:00.644Z,80.40
2023-02-17T23:39:29.818Z,80.50
2023-02-17T23:42:03.235Z,80.50
2023-02-17T23:44:32.532Z,80.60
2023-02-17T23:47:01.577Z,80.50
2023-02-17T23:49:30.693Z,80.60
2023-02-17T23:52:01.533Z,80.50
2023-02-17T23:54:30.631Z,80.50
2023-02-17T23:56:59.640Z,80.50
2023-02-17T23:59:28.573Z,80.50
